Time;durP1;ratioP1;P1;durP2;ratioP2;P2;SDS_P1;SDS_P2;PMS_P1;PMS_P2;Temp;Humidity;BMP_temperature;BMP_pressure;BME280_temperature;BME280_humidity;BME280_pressure;Samples;Min_cycle;Max_cycle;Signal;HPM_P1;HPM_P2
2022/01/28 00:01:11;;;;;;;28.33;17.08;;;;;;;;;;5061645;28;20202;-87
2022/01/28 00:03:40;;;;;;;27.25;16.38;;;;;;;;;;5062700;28;20191;-86
2022/01/28 00:06:07;;;;;;;24.20;15.35;;;;;;;;;;5071842;28;20185;-86
2022/01/28 00:08:33;;;;;;;25.20;14.77;;;;;;;;;;5058034;28;20181;-86
2022/01/28 00:10:59;;;;;;;24.17;15.95;;;;;;;;;;5050976;28;20192;-86
2022/01/28 00:13:38;;;;;;;25.77;14.95;;;;;;;;;;5047209;28;20657;-86
2022/01/28 00:16:53;;;;;;;30.13;15.70;;;;;;;;;;5077647;28;20179;-86
2022/01/28 00:38:11;;;;;;;21.73;15.85;;;;;;;;;;5079289;28;20284;-86
2022/01/28 00:40:38;;;;;;;25.35;17.20;;;;;;;;;;5082178;28;20200;-86
2022/01/28 00:43:04;;;;;;;24.90;16.60;;;;;;;;;;5085451;28;20172;-86
2022/01/28 00:45:31;;;;;;;27.05;17.30;;;;;;;;;;5097551;28;20227;-86
2022/01/28 00:47:57;;;;;;;25.75;16.65;;;;;;;;;;5074254;28;20230;-86
2022/01/28 00:50:23;;;;;;;27.38;16.20;;;;;;;;;;5071687;28;20185;-86
2022/01/28 00:52:49;;;;;;;24.90;15.40;;;;;;;;;;5098271;28;20216;-86
2022/01/28 00:55:15;;;;;;;22.40;14.23;;;;;;;;;;5100804;28;20176;-86
2022/01/28 00:57:42;;;;;;;27.65;15.98;;;;;;;;;;5088734;28;20210;-86
2022/01/28 01:00:09;;;;;;;26.35;15.77;;;;;;;;;;5069714;28;20208;-86
2022/01/28 01:02:35;;;;;;;24.85;15.10;;;;;;;;;;5071889;28;20188;-86
2022/01/28 01:05:01;;;;;;;26.00;16.20;;;;;;;;;;5070891;28;20180;-86
2022/01/28 01:07:27;;;;;;;27.88;15.68;;;;;;;;;;5079830;28;20658;-86
2022/01/28 01:09:53;;;;;;;29.45;16.17;;;;;;;;;;5083532;28;20392;-86
2022/01/28 01:12:21;;;;;;;22.77;14.27;;;;;;;;;;5088725;28;20275;-86
2022/01/28 01:14:47;;;;;;;32.28;15.93;;;;;;;;;;5088693;28;20680;-86
2022/01/28 01:19:47;;;;;;;24.00;16.35;;;;;;;;;;5087659;28;20275;-86
2022/01/28 01:22:13;;;;;;;26.55;16.38;;;;;;;;;;5104110;28;20724;-86
2022/01/28 01:24:48;;;;;;;22.20;15.70;;;;;;;;;;5086579;28;20168;-86
2022/01/28 01:27:15;;;;;;;16.02;13.05;;;;;;;;;;5101320;28;20494;-86
2022/01/28 01:29:44;;;;;;;20.95;14.15;;;;;;;;;;5083062;28;20652;-86
2022/01/28 01:32:14;;;;;;;23.27;13.70;;;;;;;;;;5075151;28;20191;-86
2022/01/28 01:34:40;;;;;;;22.58;14.82;;;;;;;;;;5086788;28;20587;-86
2022/01/28 01:37:07;;;;;;;22.70;14.60;;;;;;;;;;5105003;28;20253;-85
2022/01/28 01:39:35;;;;;;;27.17;17.67;;;;;;;;;;5075373;28;20211;-86
2022/01/28 01:42:13;;;;;;;25.40;18.30;;;;;;;;;;5090438;28;20206;-86
2022/01/28 01:53:05;;;;;;;20.50;13.50;;;;;;;;;;4974718;28;20196;-86
2022/01/28 01:55:31;;;;;;;27.95;15.13;;;;;;;;;;4964329;28;20211;-86
2022/01/28 01:57:57;;;;;;;29.75;14.95;;;;;;;;;;4966254;28;20227;-86
2022/01/28 02:00:23;;;;;;;18.77;13.35;;;;;;;;;;4964416;28;20231;-86
2022/01/28 02:02:49;;;;;;;21.40;14.63;;;;;;;;;;4964354;28;20185;-86
2022/01/28 02:05:15;;;;;;;21.48;15.20;;;;;;;;;;4957579;28;20262;-86
2022/01/28 02:07:43;;;;;;;23.70;15.00;;;;;;;;;;4962782;28;20337;-85
2022/01/28 02:10:09;;;;;;;26.98;15.13;;;;;;;;;;4967867;28;20188;-85
2022/01/28 02:12:45;;;;;;;22.70;14.25;;;;;;;;;;4968617;28;20798;-85
2022/01/28 02:15:11;;;;;;;21.25;14.45;;;;;;;;;;4962237;28;20270;-86
2022/01/28 02:17:37;;;;;;;17.55;12.88;;;;;;;;;;4974867;28;20200;-86
2022/01/28 02:20:03;;;;;;;20.08;13.48;;;;;;;;;;4962068;28;20260;-86
2022/01/28 02:22:29;;;;;;;23.38;14.68;;;;;;;;;;4952357;28;20200;-86
2022/01/28 02:24:55;;;;;;;28.67;15.52;;;;;;;;;;4980072;28;20203;-85
2022/01/28 02:27:24;;;;;;;25.10;14.55;;;;;;;;;;4993549;28;20284;-86
2022/01/28 02:29:50;;;;;;;27.42;14.55;;;;;;;;;;5036890;28;20212;-86
2022/01/28 02:32:16;;;;;;;21.92;14.18;;;;;;;;;;5074148;28;20198;-86
2022/01/28 02:34:42;;;;;;;21.55;13.85;;;;;;;;;;5068315;28;20179;-86
2022/01/28 02:37:08;;;;;;;23.60;14.85;;;;;;;;;;5102391;28;20268;-86
2022/01/28 02:39:34;;;;;;;21.80;13.90;;;;;;;;;;5090734;28;20226;-86
2022/01/28 02:42:28;;;;;;;25.10;15.02;;;;;;;;;;5075576;28;20971;-86
2022/01/28 02:44:53;;;;;;;17.65;13.27;;;;;;;;;;5089634;28;20338;-86
2022/01/28 02:47:31;;;;;;;22.02;13.25;;;;;;;;;;5072840;28;20176;-86
2022/01/28 02:49:57;;;;;;;22.17;12.57;;;;;;;;;;5072049;28;20187;-85
2022/01/28 02:52:34;;;;;;;22.80;15.35;;;;;;;;;;5100754;28;20190;-86
2022/01/28 02:55:02;;;;;;;25.50;13.50;;;;;;;;;;5089289;28;20169;-86
2022/01/28 02:57:28;;;;;;;18.08;14.05;;;;;;;;;;5073748;28;20180;-86
2022/01/28 02:59:54;;;;;;;21.90;14.05;;;;;;;;;;5074640;28;20207;-85
2022/01/28 03:02:20;;;;;;;19.83;13.25;;;;;;;;;;5097478;28;20270;-86
2022/01/28 03:05:07;;;;;;;23.50;13.93;;;;;;;;;;5068395;28;20417;-85
2022/01/28 03:07:32;;;;;;;23.90;14.55;;;;;;;;;;5100149;28;20180;-86
2022/01/28 03:12:36;;;;;;;21.05;13.57;;;;;;;;;;5089003;28;20450;-86
2022/01/28 03:15:07;;;;;;;22.05;14.50;;;;;;;;;;5088675;28;20180;-86
2022/01/28 03:23:02;;;;;;;22.05;13.15;;;;;;;;;;5007502;28;20186;-86
2022/01/28 03:25:28;;;;;;;28.85;13.75;;;;;;;;;;5003523;28;20183;-86
2022/01/28 03:27:57;;;;;;;23.13;13.63;;;;;;;;;;5004129;28;20189;-86
2022/01/28 03:30:23;;;;;;;22.52;13.18;;;;;;;;;;5002927;28;20225;-85
2022/01/28 03:32:50;;;;;;;23.55;13.50;;;;;;;;;;5000389;28;20451;-85
2022/01/28 03:35:17;;;;;;;20.35;13.05;;;;;;;;;;4990906;28;20614;-85
2022/01/28 03:37:43;;;;;;;22.85;14.10;;;;;;;;;;5010732;28;20261;-86
2022/01/28 03:40:13;;;;;;;21.95;13.80;;;;;;;;;;5023891;28;20209;-86
2022/01/28 03:42:39;;;;;;;19.83;13.55;;;;;;;;;;5023142;28;20829;-86
2022/01/28 03:45:06;;;;;;;21.67;13.85;;;;;;;;;;5022220;28;20194;-86
2022/01/28 03:47:32;;;;;;;22.58;13.77;;;;;;;;;;5021540;28;20191;-86
2022/01/28 03:49:58;;;;;;;19.52;11.82;;;;;;;;;;5023288;28;20243;-85
2022/01/28 03:52:24;;;;;;;18.20;12.43;;;;;;;;;;5039766;28;20216;-86
2022/01/28 03:54:50;;;;;;;15.02;10.98;;;;;;;;;;5040873;28;20253;-85
2022/01/28 03:57:16;;;;;;;22.10;12.98;;;;;;;;;;5023068;28;20189;-85
2022/01/28 03:59:42;;;;;;;19.98;12.45;;;;;;;;;;5093565;28;20215;-85
2022/01/28 04:02:10;;;;;;;20.23;12.50;;;;;;;;;;5094013;28;20193;-85
2022/01/28 04:12:40;;;;;;;19.17;11.88;;;;;;;;;;5088060;28;20209;-86
2022/01/28 04:17:52;;;;;;;19.40;12.30;;;;;;;;;;5088152;28;20202;-86
2022/01/28 04:20:18;;;;;;;18.90;12.30;;;;;;;;;;5092718;28;20245;-86
2022/01/28 04:22:44;;;;;;;22.48;12.50;;;;;;;;;;5084381;28;20188;-86
2022/01/28 04:25:10;;;;;;;17.92;11.32;;;;;;;;;;5085572;28;20179;-85
2022/01/28 04:27:36;;;;;;;23.33;13.88;;;;;;;;;;5088112;28;20168;-86
2022/01/28 04:30:02;;;;;;;22.35;12.85;;;;;;;;;;5089158;28;20196;-85
2022/01/28 04:32:29;;;;;;;23.63;14.10;;;;;;;;;;5094480;28;20188;-85
2022/01/28 04:34:58;;;;;;;28.45;13.55;;;;;;;;;;5098880;28;20715;-84
2022/01/28 04:39:56;;;;;;;20.10;12.57;;;;;;;;;;5087091;28;20208;-85
2022/01/28 04:42:51;;;;;;;21.75;13.15;;;;;;;;;;5087032;28;20912;-85
2022/01/28 04:51:00;;;;;;;25.73;14.15;;;;;;;;;;5091166;28;20191;-86
2022/01/28 04:53:34;;;;;;;24.05;15.05;;;;;;;;;;5090385;28;20209;-85
2022/01/28 05:28:29;;;;;;;19.95;11.85;;;;;;;;;;5061413;28;20185;-85
2022/01/28 05:30:55;;;;;;;24.73;11.73;;;;;;;;;;5061258;28;20180;-85
2022/01/28 05:33:21;;;;;;;18.70;10.77;;;;;;;;;;5037966;28;20193;-85
2022/01/28 05:35:47;;;;;;;16.85;9.75;;;;;;;;;;5038386;28;20337;-86
2022/01/28 05:38:13;;;;;;;23.58;12.25;;;;;;;;;;5041430;28;20220;-85
2022/01/28 05:40:39;;;;;;;21.60;10.50;;;;;;;;;;5026547;28;20595;-85
2022/01/28 05:43:05;;;;;;;19.17;10.80;;;;;;;;;;5062927;28;20454;-85
2022/01/28 05:45:31;;;;;;;21.70;11.85;;;;;;;;;;5036232;28;20428;-85
2022/01/28 05:47:58;;;;;;;21.20;11.93;;;;;;;;;;5056092;28;20201;-85
2022/01/28 05:50:24;;;;;;;20.60;9.85;;;;;;;;;;5001842;28;20445;-86
2022/01/28 05:52:50;;;;;;;21.43;10.80;;;;;;;;;;5017954;28;20194;-86
2022/01/28 05:55:16;;;;;;;24.52;12.88;;;;;;;;;;5004937;28;20433;-85
2022/01/28 05:57:42;;;;;;;19.73;11.02;;;;;;;;;;5016844;28;20179;-86
2022/01/28 06:00:08;;;;;;;19.10;10.13;;;;;;;;;;4998525;28;20213;-85
2022/01/28 06:02:34;;;;;;;21.27;10.55;;;;;;;;;;5094246;28;20442;-85
2022/01/28 06:05:00;;;;;;;14.88;9.07;;;;;;;;;;5088432;28;20263;-85
2022/01/28 06:07:26;;;;;;;14.63;8.43;;;;;;;;;;5088170;28;20266;-85
2022/01/28 06:09:55;;;;;;;14.60;8.05;;;;;;;;;;5087878;28;20434;-85
2022/01/28 06:12:21;;;;;;;15.25;8.35;;;;;;;;;;5093520;28;20188;-85
2022/01/28 06:14:47;;;;;;;17.70;8.93;;;;;;;;;;5091261;28;20185;-85
2022/01/28 06:17:13;;;;;;;17.35;9.88;;;;;;;;;;5088927;28;20205;-84
2022/01/28 06:19:39;;;;;;;13.70;8.60;;;;;;;;;;5099862;28;20279;-85
2022/01/28 06:22:05;;;;;;;18.52;9.98;;;;;;;;;;5100920;28;20205;-84
2022/01/28 06:24:31;;;;;;;16.00;9.35;;;;;;;;;;5089603;28;20184;-85
2022/01/28 06:26:57;;;;;;;16.98;8.23;;;;;;;;;;5091958;28;20247;-84
2022/01/28 06:29:23;;;;;;;16.90;8.83;;;;;;;;;;5099509;28;20190;-85
2022/01/28 06:31:49;;;;;;;12.85;7.75;;;;;;;;;;5099387;28;20548;-85
2022/01/28 06:34:15;;;;;;;13.35;8.63;;;;;;;;;;5099309;28;20172;-84
2022/01/28 06:36:41;;;;;;;18.08;10.20;;;;;;;;;;5090026;28;21305;-85
2022/01/28 06:39:07;;;;;;;11.25;7.20;;;;;;;;;;5081508;28;20570;-85
2022/01/28 06:41:33;;;;;;;16.97;9.27;;;;;;;;;;5099647;28;20415;-85
2022/01/28 06:43:59;;;;;;;12.77;8.20;;;;;;;;;;5082585;28;20459;-85
2022/01/28 06:46:26;;;;;;;16.43;8.97;;;;;;;;;;5067720;28;20426;-85
2022/01/28 06:48:52;;;;;;;19.48;9.57;;;;;;;;;;5076020;28;20422;-84
2022/01/28 06:51:18;;;;;;;18.20;9.75;;;;;;;;;;5093073;28;20187;-85
2022/01/28 06:53:44;;;;;;;18.20;10.65;;;;;;;;;;5076106;28;20177;-85
2022/01/28 06:56:10;;;;;;;16.67;9.27;;;;;;;;;;5073634;28;20722;-85
2022/01/28 06:58:36;;;;;;;18.00;10.25;;;;;;;;;;5071701;28;20213;-84
2022/01/28 07:01:02;;;;;;;18.48;10.40;;;;;;;;;;5085309;28;20199;-85
2022/01/28 07:03:28;;;;;;;20.73;9.70;;;;;;;;;;5090254;28;20185;-85
2022/01/28 07:05:54;;;;;;;14.80;9.53;;;;;;;;;;5069897;28;20199;-85
2022/01/28 07:08:23;;;;;;;21.00;9.50;;;;;;;;;;5088492;28;20494;-86
2022/01/28 07:10:48;;;;;;;17.48;9.95;;;;;;;;;;5068130;28;20444;-85
2022/01/28 07:13:14;;;;;;;16.83;9.50;;;;;;;;;;5081284;28;20191;-85
2022/01/28 07:15:41;;;;;;;15.30;9.60;;;;;;;;;;5083540;28;20891;-85
2022/01/28 07:18:07;;;;;;;16.50;9.73;;;;;;;;;;5073399;28;20184;-85
2022/01/28 07:20:34;;;;;;;21.10;9.65;;;;;;;;;;5072140;28;20208;-86
2022/01/28 07:23:00;;;;;;;16.10;9.35;;;;;;;;;;5067068;28;20211;-85
2022/01/28 07:25:26;;;;;;;20.75;10.55;;;;;;;;;;5069408;28;20184;-84
2022/01/28 07:27:53;;;;;;;15.15;8.52;;;;;;;;;;5088303;28;20183;-85
2022/01/28 07:30:19;;;;;;;12.68;8.45;;;;;;;;;;5088217;28;20180;-84
2022/01/28 07:32:48;;;;;;;15.88;8.20;;;;;;;;;;5070265;28;20255;-83
2022/01/28 07:35:14;;;;;;;13.02;8.60;;;;;;;;;;5085782;28;20176;-85
2022/01/28 07:37:40;;;;;;;16.30;10.33;;;;;;;;;;5068485;28;20259;-84
2022/01/28 07:40:06;;;;;;;16.42;9.10;;;;;;;;;;5049617;28;20459;-84
2022/01/28 07:42:36;;;;;;;17.92;9.65;;;;;;;;;;5053193;28;20189;-83
2022/01/28 07:45:02;;;;;;;18.80;10.43;;;;;;;;;;5048858;28;20177;-83
2022/01/28 07:47:28;;;;;;;16.88;8.55;;;;;;;;;;5052472;28;20195;-83
2022/01/28 07:49:54;;;;;;;14.32;8.82;;;;;;;;;;5049631;28;20542;-84
2022/01/28 07:52:20;;;;;;;18.73;9.40;;;;;;;;;;5047821;28;20181;-83
2022/01/28 07:54:49;;;;;;;22.50;11.70;;;;;;;;;;5060852;28;20418;-83
2022/01/28 07:57:15;;;;;;;18.95;10.27;;;;;;;;;;5053873;28;20212;-84
2022/01/28 07:59:41;;;;;;;16.45;9.70;;;;;;;;;;5056876;28;20220;-83
2022/01/28 08:02:08;;;;;;;19.55;11.10;;;;;;;;;;5052247;28;20247;-83
2022/01/28 08:04:34;;;;;;;22.00;10.35;;;;;;;;;;5046792;28;20213;-83
2022/01/28 08:07:00;;;;;;;15.38;9.30;;;;;;;;;;5056673;28;20165;-83
2022/01/28 08:09:25;;;;;;;18.40;10.20;;;;;;;;;;5056969;28;20214;-83
2022/01/28 08:11:51;;;;;;;17.98;11.15;;;;;;;;;;5058143;28;20200;-84
2022/01/28 08:14:17;;;;;;;16.08;8.77;;;;;;;;;;5067586;28;20191;-84
2022/01/28 08:16:43;;;;;;;22.50;9.97;;;;;;;;;;5052139;28;20208;-84
2022/01/28 08:19:09;;;;;;;18.80;10.70;;;;;;;;;;5047771;28;20435;-84
2022/01/28 08:21:35;;;;;;;18.98;10.15;;;;;;;;;;5056241;28;20489;-84
2022/01/28 08:24:01;;;;;;;21.42;11.57;;;;;;;;;;5073045;28;20176;-84
2022/01/28 08:26:27;;;;;;;17.57;9.93;;;;;;;;;;5062362;28;20173;-88
2022/01/28 08:28:53;;;;;;;23.63;11.35;;;;;;;;;;5068224;28;20499;-88
2022/01/28 08:31:19;;;;;;;21.25;12.20;;;;;;;;;;5084949;28;20172;-87
2022/01/28 08:33:46;;;;;;;20.40;11.20;;;;;;;;;;5064011;28;20668;-87
2022/01/28 08:36:12;;;;;;;24.73;13.10;;;;;;;;;;5078842;28;20183;-87
2022/01/28 08:38:44;;;;;;;21.38;11.18;;;;;;;;;;5087775;28;20248;-87
2022/01/28 08:41:30;;;;;;;16.40;10.65;;;;;;;;;;5102986;28;20200;-87
2022/01/28 08:44:03;;;;;;;18.98;11.13;;;;;;;;;;5104684;28;20183;-87
2022/01/28 08:46:30;;;;;;;23.77;11.43;;;;;;;;;;5099080;28;20715;-88
2022/01/28 08:48:55;;;;;;;18.88;12.52;;;;;;;;;;5104775;28;20211;-88
2022/01/28 08:51:21;;;;;;;19.85;10.38;;;;;;;;;;5096924;28;20194;-88
2022/01/28 08:53:48;;;;;;;21.70;12.27;;;;;;;;;;5099105;28;20184;-87
2022/01/28 08:56:14;;;;;;;25.15;12.38;;;;;;;;;;5095000;28;20177;-88
2022/01/28 08:58:40;;;;;;;21.23;11.73;;;;;;;;;;5098022;28;20645;-87
2022/01/28 09:01:06;;;;;;;19.10;11.63;;;;;;;;;;5089931;28;20207;-87
2022/01/28 09:03:33;;;;;;;19.27;11.90;;;;;;;;;;5098214;28;20185;-87
2022/01/28 09:05:59;;;;;;;25.35;13.05;;;;;;;;;;5091548;28;20203;-88
2022/01/28 09:08:26;;;;;;;21.75;11.50;;;;;;;;;;5103202;28;20187;-91
2022/01/28 09:11:31;;;;;;;20.42;12.93;;;;;;;;;;5103502;28;20633;-88
2022/01/28 09:13:44;;;;;;;19.23;12.65;;;;;;;;;;5085315;28;20214;-90
2022/01/28 09:16:10;;;;;;;22.60;12.10;;;;;;;;;;5102820;28;20192;-92
2022/01/28 09:18:39;;;;;;;21.10;11.77;;;;;;;;;;5093197;28;20177;-90
2022/01/28 09:21:07;;;;;;;21.00;12.50;;;;;;;;;;5093084;28;20280;-90
2022/01/28 09:23:33;;;;;;;23.52;13.93;;;;;;;;;;5097543;28;20258;-88
2022/01/28 09:26:03;;;;;;;25.00;14.82;;;;;;;;;;5100339;28;20241;-91
2022/01/28 09:28:29;;;;;;;23.52;13.38;;;;;;;;;;5097683;28;20269;-92
2022/01/28 09:30:57;;;;;;;23.55;13.20;;;;;;;;;;5103542;28;20175;-90
2022/01/28 09:33:23;;;;;;;18.08;12.35;;;;;;;;;;5094398;28;20180;-89
2022/01/28 09:35:54;;;;;;;25.75;13.25;;;;;;;;;;5091187;28;20185;-87
2022/01/28 09:38:20;;;;;;;21.63;13.38;;;;;;;;;;5092818;28;20230;-87
2022/01/28 09:40:46;;;;;;;22.50;12.57;;;;;;;;;;5088204;28;20207;-89
2022/01/28 09:43:13;;;;;;;23.50;12.02;;;;;;;;;;5088010;28;20175;-88
2022/01/28 09:45:39;;;;;;;23.73;14.52;;;;;;;;;;5102411;28;20175;-87
2022/01/28 09:48:05;;;;;;;30.48;13.18;;;;;;;;;;5097098;28;20222;-88
2022/01/28 09:50:32;;;;;;;22.10;12.90;;;;;;;;;;5090500;28;20187;-90
2022/01/28 09:52:59;;;;;;;16.55;11.68;;;;;;;;;;5088271;28;20188;-89
2022/01/28 09:55:26;;;;;;;22.80;13.48;;;;;;;;;;5086699;28;20177;-91
2022/01/28 09:57:53;;;;;;;20.25;13.45;;;;;;;;;;5103124;28;20218;-90
2022/01/28 10:00:25;;;;;;;20.77;13.10;;;;;;;;;;5093648;28;20227;-90
2022/01/28 10:02:52;;;;;;;18.92;12.43;;;;;;;;;;5092304;28;20192;-89
2022/01/28 10:05:25;;;;;;;19.88;11.70;;;;;;;;;;5092221;28;20172;-89
2022/01/28 10:08:03;;;;;;;18.42;12.52;;;;;;;;;;5101809;28;20180;-89
2022/01/28 10:10:41;;;;;;;21.65;13.10;;;;;;;;;;5086116;28;20367;-88
2022/01/28 10:13:12;;;;;;;23.63;12.32;;;;;;;;;;5100192;28;20674;-88
2022/01/28 10:15:51;;;;;;;20.75;11.88;;;;;;;;;;5101439;28;20207;-88
2022/01/28 10:18:17;;;;;;;19.25;11.27;;;;;;;;;;5094837;28;20203;-90
2022/01/28 10:20:44;;;;;;;23.17;13.68;;;;;;;;;;5091367;28;20204;-87
2022/01/28 10:23:12;;;;;;;17.77;11.13;;;;;;;;;;5091234;28;20179;-89
2022/01/28 10:25:43;;;;;;;19.80;12.15;;;;;;;;;;5085194;28;20183;-87
2022/01/28 10:31:06;;;;;;;16.85;10.93;;;;;;;;;;5088916;28;20188;-87
2022/01/28 10:33:55;;;;;;;18.35;11.30;;;;;;;;;;5091766;28;20187;-89
2022/01/28 10:42:27;;;;;;;17.50;11.20;;;;;;;;;;4982792;28;20191;-89
2022/01/28 10:45:22;;;;;;;13.73;10.30;;;;;;;;;;4966071;28;20226;-88
2022/01/28 10:48:09;;;;;;;18.58;10.27;;;;;;;;;;4982228;28;20191;-90
2022/01/28 10:51:13;;;;;;;13.10;10.02;;;;;;;;;;4981977;28;20183;-89
2022/01/28 10:53:42;;;;;;;17.45;10.60;;;;;;;;;;4963310;28;20200;-88
2022/01/28 10:56:14;;;;;;;16.85;10.35;;;;;;;;;;4958142;28;20764;-89
2022/01/28 10:58:50;;;;;;;16.38;10.77;;;;;;;;;;4945370;29;20196;-86
2022/01/28 11:01:16;;;;;;;13.35;9.70;;;;;;;;;;4947092;29;20248;-87
2022/01/28 11:04:03;;;;;;;17.20;11.07;;;;;;;;;;4963604;29;20177;-88
2022/01/28 11:06:34;;;;;;;13.77;10.02;;;;;;;;;;4969021;28;20196;-86
2022/01/28 11:09:01;;;;;;;13.93;8.85;;;;;;;;;;4951576;28;20204;-87
2022/01/28 11:11:36;;;;;;;15.63;9.55;;;;;;;;;;4962604;28;20200;-87
2022/01/28 11:14:08;;;;;;;13.55;8.85;;;;;;;;;;4962304;29;20202;-88
2022/01/28 11:19:49;;;;;;;15.70;10.10;;;;;;;;;;4940962;29;20300;-85
2022/01/28 11:23:02;;;;;;;16.30;9.80;;;;;;;;;;4952860;28;20197;-90
2022/01/28 11:25:36;;;;;;;17.38;10.98;;;;;;;;;;4886705;29;20190;-86
2022/01/28 11:28:10;;;;;;;18.23;11.00;;;;;;;;;;4953903;28;20651;-87
2022/01/28 11:30:46;;;;;;;18.15;11.40;;;;;;;;;;4977380;28;20242;-87
2022/01/28 11:33:47;;;;;;;14.55;10.13;;;;;;;;;;4997087;28;20187;-90
2022/01/28 11:36:13;;;;;;;17.17;10.30;;;;;;;;;;4974820;28;20199;-87
2022/01/28 11:38:41;;;;;;;17.38;11.18;;;;;;;;;;5014633;28;20293;-88
2022/01/28 11:41:11;;;;;;;17.25;10.65;;;;;;;;;;5008705;28;20225;-87
2022/01/28 11:43:45;;;;;;;14.77;9.25;;;;;;;;;;5023038;28;20205;-87
2022/01/28 11:46:14;;;;;;;14.15;9.63;;;;;;;;;;5037286;28;20276;-87
2022/01/28 11:48:52;;;;;;;15.35;10.30;;;;;;;;;;5014783;28;20357;-86
2022/01/28 11:51:20;;;;;;;15.25;9.10;;;;;;;;;;5019598;28;20185;-85
2022/01/28 11:54:15;;;;;;;9.80;7.57;;;;;;;;;;5037113;28;20190;-88
2022/01/28 11:57:03;;;;;;;11.80;8.23;;;;;;;;;;4953848;28;20211;-87
2022/01/28 11:59:30;;;;;;;12.15;8.75;;;;;;;;;;4982634;28;20206;-86
2022/01/28 12:01:56;;;;;;;12.13;8.52;;;;;;;;;;4998533;28;20207;-86
2022/01/28 12:04:25;;;;;;;12.30;8.70;;;;;;;;;;5000387;28;20202;-86
2022/01/28 12:06:54;;;;;;;15.30;9.02;;;;;;;;;;4980611;28;20431;-86
2022/01/28 12:09:20;;;;;;;15.50;8.98;;;;;;;;;;4979937;28;20171;-86
2022/01/28 12:11:46;;;;;;;13.32;8.70;;;;;;;;;;4980597;28;20219;-86
2022/01/28 12:14:14;;;;;;;13.65;8.70;;;;;;;;;;4999699;28;20207;-86
2022/01/28 12:16:46;;;;;;;17.35;10.70;;;;;;;;;;4996487;28;20218;-84
2022/01/28 12:19:16;;;;;;;16.58;10.27;;;;;;;;;;4998968;28;21958;-87
2022/01/28 12:22:02;;;;;;;19.58;10.75;;;;;;;;;;4992547;28;20183;-85
2022/01/28 12:24:28;;;;;;;10.90;8.15;;;;;;;;;;5000335;28;20183;-87
2022/01/28 12:27:07;;;;;;;11.23;7.30;;;;;;;;;;4993893;28;20203;-88
2022/01/28 12:29:34;;;;;;;12.77;7.95;;;;;;;;;;4992589;28;20505;-85
2022/01/28 12:32:02;;;;;;;13.38;8.20;;;;;;;;;;5002555;28;20423;-88
2022/01/28 12:34:28;;;;;;;14.10;9.07;;;;;;;;;;5098542;28;20184;-88
2022/01/28 12:36:57;;;;;;;11.60;7.45;;;;;;;;;;5095543;28;20210;-87
2022/01/28 12:39:36;;;;;;;10.98;7.65;;;;;;;;;;5054217;28;20563;-88
2022/01/28 12:42:10;;;;;;;12.88;8.15;;;;;;;;;;5048403;28;20260;-89
2022/01/28 12:44:38;;;;;;;14.85;8.55;;;;;;;;;;5055832;28;20195;-91
2022/01/28 12:47:07;;;;;;;12.43;9.30;;;;;;;;;;5061134;28;20259;-86
2022/01/28 12:49:37;;;;;;;17.27;10.00;;;;;;;;;;5051458;28;20185;-86
2022/01/28 12:52:04;;;;;;;10.10;7.72;;;;;;;;;;5059027;28;20183;-86
2022/01/28 12:54:41;;;;;;;12.93;9.48;;;;;;;;;;5073585;28;20291;-88
2022/01/28 12:57:08;;;;;;;13.38;8.73;;;;;;;;;;5058092;28;20198;-86
2022/01/28 12:59:34;;;;;;;12.85;9.38;;;;;;;;;;5076429;28;20205;-87
2022/01/28 13:02:00;;;;;;;15.38;9.02;;;;;;;;;;5047341;28;20585;-87
2022/01/28 13:04:47;;;;;;;11.45;8.95;;;;;;;;;;5061524;28;20286;-85
2022/01/28 13:09:54;;;;;;;13.80;9.13;;;;;;;;;;5078341;28;20251;-86
2022/01/28 13:12:21;;;;;;;15.35;7.90;;;;;;;;;;5058109;28;20200;-87
2022/01/28 13:14:47;;;;;;;14.85;9.43;;;;;;;;;;5056193;28;20199;-86
2022/01/28 13:17:18;;;;;;;13.50;8.37;;;;;;;;;;5055241;28;20208;-85
2022/01/28 13:19:52;;;;;;;10.27;8.45;;;;;;;;;;5050633;28;20471;-85
2022/01/28 13:22:25;;;;;;;10.73;8.13;;;;;;;;;;5065809;28;20167;-86
2022/01/28 13:24:52;;;;;;;13.93;7.65;;;;;;;;;;5053209;28;20692;-86
2022/01/28 13:27:19;;;;;;;13.90;8.05;;;;;;;;;;5071788;28;20169;-85
2022/01/28 13:29:52;;;;;;;12.35;7.97;;;;;;;;;;5056853;28;20187;-86
2022/01/28 13:32:39;;;;;;;11.40;8.07;;;;;;;;;;5066096;28;20186;-87
2022/01/28 13:35:11;;;;;;;16.92;7.97;;;;;;;;;;5054674;28;20184;-86
2022/01/28 13:37:39;;;;;;;11.05;7.75;;;;;;;;;;5061353;28;20232;-87
2022/01/28 13:40:07;;;;;;;8.15;7.13;;;;;;;;;;5100770;28;20195;-87
2022/01/28 13:42:33;;;;;;;11.95;7.32;;;;;;;;;;5094306;28;20212;-87
2022/01/28 13:45:04;;;;;;;11.02;7.80;;;;;;;;;;5094584;28;20231;-87
2022/01/28 13:47:49;;;;;;;9.68;8.15;;;;;;;;;;5090577;28;20201;-85
2022/01/28 13:50:33;;;;;;;12.38;7.50;;;;;;;;;;5090606;28;20187;-87
2022/01/28 13:55:54;;;;;;;15.82;7.07;;;;;;;;;;5089236;28;20184;-87
2022/01/28 13:58:21;;;;;;;9.23;8.18;;;;;;;;;;5089798;28;20176;-87
2022/01/28 14:00:48;;;;;;;8.73;6.78;;;;;;;;;;5095897;28;20204;-85
2022/01/28 14:03:18;;;;;;;9.65;7.00;;;;;;;;;;5099931;28;20187;-87
2022/01/28 14:05:55;;;;;;;9.68;6.97;;;;;;;;;;5096813;28;20189;-86
2022/01/28 14:08:39;;;;;;;10.68;7.68;;;;;;;;;;5092417;28;20388;-87
2022/01/28 14:11:27;;;;;;;10.88;7.07;;;;;;;;;;5096219;28;20218;-87
2022/01/28 14:14:14;;;;;;;18.15;7.88;;;;;;;;;;5086696;28;20180;-86
2022/01/28 14:16:40;;;;;;;8.70;6.32;;;;;;;;;;5084023;28;20202;-85
2022/01/28 14:19:06;;;;;;;8.07;5.43;;;;;;;;;;5100608;28;20171;-86
2022/01/28 14:21:32;;;;;;;12.27;7.47;;;;;;;;;;5088144;28;20653;-86
2022/01/28 14:23:58;;;;;;;9.77;6.50;;;;;;;;;;5094263;28;20196;-87
2022/01/28 14:26:24;;;;;;;15.77;9.18;;;;;;;;;;5092242;28;20172;-85
2022/01/28 14:31:22;;;;;;;10.68;6.47;;;;;;;;;;5088252;28;20712;-87
2022/01/28 14:33:49;;;;;;;13.90;7.82;;;;;;;;;;5090859;28;20179;-86
2022/01/28 14:36:15;;;;;;;13.10;7.93;;;;;;;;;;5091099;28;20189;-84
2022/01/28 14:38:42;;;;;;;8.73;6.53;;;;;;;;;;5091815;28;20226;-86
2022/01/28 14:41:11;;;;;;;8.93;6.30;;;;;;;;;;5074207;28;20225;-86
2022/01/28 14:43:37;;;;;;;14.95;6.90;;;;;;;;;;5078230;28;20188;-87
2022/01/28 14:46:03;;;;;;;11.20;7.77;;;;;;;;;;5068988;28;20180;-87
2022/01/28 14:48:29;;;;;;;9.77;7.25;;;;;;;;;;5074271;28;20434;-87
2022/01/28 14:50:55;;;;;;;14.18;9.45;;;;;;;;;;5073750;28;20207;-85
2022/01/28 14:53:21;;;;;;;11.48;7.55;;;;;;;;;;5079950;28;20648;-85
2022/01/28 14:55:47;;;;;;;11.20;7.33;;;;;;;;;;5085256;28;20568;-85
2022/01/28 14:58:13;;;;;;;11.57;7.80;;;;;;;;;;5070521;28;20445;-88
2022/01/28 15:00:39;;;;;;;9.23;7.03;;;;;;;;;;5070768;28;20512;-86
2022/01/28 15:03:06;;;;;;;9.35;6.90;;;;;;;;;;5074624;28;20431;-88
2022/01/28 15:05:34;;;;;;;13.38;9.45;;;;;;;;;;5074644;28;20172;-83
2022/01/28 15:08:06;;;;;;;10.48;7.55;;;;;;;;;;5089142;28;20207;-86
2022/01/28 15:10:32;;;;;;;10.90;7.35;;;;;;;;;;5068219;28;20660;-87
2022/01/28 15:12:58;;;;;;;10.90;7.25;;;;;;;;;;5085256;28;20235;-86
2022/01/28 15:15:24;;;;;;;14.40;7.90;;;;;;;;;;5090477;28;20473;-88
2022/01/28 15:17:50;;;;;;;12.65;9.15;;;;;;;;;;5074410;28;20274;-87
2022/01/28 15:20:16;;;;;;;8.98;7.00;;;;;;;;;;5073785;28;20231;-87
2022/01/28 15:22:42;;;;;;;11.98;8.05;;;;;;;;;;5067184;28;20183;-86
2022/01/28 15:25:09;;;;;;;12.40;6.87;;;;;;;;;;5070637;28;20168;-86
2022/01/28 15:27:35;;;;;;;11.07;6.70;;;;;;;;;;5074106;28;20439;-86
2022/01/28 15:30:08;;;;;;;8.77;7.53;;;;;;;;;;5073912;28;20192;-85
2022/01/28 15:38:04;;;;;;;13.18;8.02;;;;;;;;;;5075427;28;20266;-82
2022/01/28 15:40:30;;;;;;;10.15;7.00;;;;;;;;;;5065740;28;20221;-89
2022/01/28 15:43:00;;;;;;;9.52;6.85;;;;;;;;;;5064821;28;20355;-86
2022/01/28 15:45:29;;;;;;;11.60;8.63;;;;;;;;;;5062377;28;20180;-83
2022/01/28 15:47:55;;;;;;;13.57;8.20;;;;;;;;;;5059569;28;20180;-85
2022/01/28 15:50:21;;;;;;;11.32;9.02;;;;;;;;;;5064264;28;20184;-84
2022/01/28 15:52:47;;;;;;;12.57;8.63;;;;;;;;;;5053439;28;20188;-85
2022/01/28 15:55:15;;;;;;;10.35;8.57;;;;;;;;;;5056448;28;20173;-85
2022/01/28 15:57:42;;;;;;;10.27;8.82;;;;;;;;;;5064035;28;20172;-86
2022/01/28 16:00:08;;;;;;;13.57;10.88;;;;;;;;;;5060477;28;20230;-84
2022/01/28 16:02:34;;;;;;;15.50;10.18;;;;;;;;;;5058806;28;20248;-83
2022/01/28 16:05:03;;;;;;;13.00;8.90;;;;;;;;;;5050183;28;20177;-85
2022/01/28 16:07:58;;;;;;;11.07;7.90;;;;;;;;;;5061685;28;20426;-83
2022/01/28 16:13:39;;;;;;;15.80;10.55;;;;;;;;;;4977608;28;20687;-85
2022/01/28 16:18:58;;;;;;;14.82;9.90;;;;;;;;;;4980708;28;20207;-85
2022/01/28 16:21:24;;;;;;;17.70;11.43;;;;;;;;;;4980615;28;20235;-84
2022/01/28 16:23:56;;;;;;;23.40;12.73;;;;;;;;;;4980369;28;20231;-85
2022/01/28 16:26:51;;;;;;;15.88;10.57;;;;;;;;;;4969590;28;20703;-86
2022/01/28 16:29:23;;;;;;;13.23;8.90;;;;;;;;;;4979137;28;20275;-87
2022/01/28 16:31:49;;;;;;;14.38;9.50;;;;;;;;;;4963206;28;20265;-86
2022/01/28 16:34:20;;;;;;;16.83;9.60;;;;;;;;;;4964221;28;20707;-86
2022/01/28 16:36:51;;;;;;;13.65;8.52;;;;;;;;;;4970410;28;20184;-86